createdAt,value
2023-04-02T00:00:16.413Z,10.25
2023-04-02T00:02:49.768Z,10.23
2023-04-02T00:05:16.625Z,13.90
2023-04-02T00:07:44.746Z,13.20
2023-04-02T00:10:37.886Z,13.48
2023-04-02T00:13:23.026Z,12.57
2023-04-02T00:15:51.808Z,12.35
2023-04-02T00:18:20.521Z,11.80
2023-04-02T00:20:49.672Z,10.73
2023-04-02T00:23:16.360Z,12.75
2023-04-02T00:25:45.534Z,10.90
2023-04-02T00:28:21.591Z,13.38
2023-04-02T00:30:56.633Z,14.02
2023-04-02T00:33:26.234Z,8.52
2023-04-02T00:35:53.618Z,14.70
2023-04-02T00:38:27.064Z,11.70
2023-04-02T00:40:56.514Z,12.70
2023-04-02T00:43:25.283Z,9.25
2023-04-02T00:45:55.472Z,10.98
2023-04-02T00:48:27.932Z,14.05
2023-04-02T00:50:55.471Z,8.65
2023-04-02T00:53:28.756Z,11.20
2023-04-02T00:55:57.614Z,9.80
2023-04-02T00:58:31.987Z,12.63
2023-04-02T01:00:59.638Z,10.48
2023-04-02T01:03:37.240Z,8.50
2023-04-02T01:06:16.365Z,9.77
2023-04-02T01:08:51.220Z,12.98
2023-04-02T01:11:39.570Z,12.57
2023-04-02T01:14:36.065Z,7.97
2023-04-02T01:17:20.814Z,7.30
2023-04-02T01:20:17.738Z,13.23
2023-04-02T01:23:00.420Z,9.15
2023-04-02T01:25:46.433Z,7.78
2023-04-02T01:28:23.166Z,11.68
2023-04-02T01:30:56.268Z,9.02
2023-04-02T01:33:27.793Z,10.05
2023-04-02T01:36:01.765Z,8.98
2023-04-02T01:38:34.627Z,12.02
2023-04-02T01:41:31.307Z,10.07
2023-04-02T01:44:15.311Z,11.82
2023-04-02T01:49:15.402Z,11.30
2023-04-02T01:51:44.539Z,7.10
2023-04-02T01:54:13.827Z,7.13
2023-04-02T01:56:41.396Z,10.25
2023-04-02T01:59:08.480Z,9.73
2023-04-02T02:01:45.646Z,9.65
2023-04-02T02:04:13.760Z,8.80
2023-04-02T02:06:43.558Z,7.90
2023-04-02T02:09:26.121Z,10.38
2023-04-02T02:11:52.904Z,7.90
2023-04-02T02:14:22.330Z,10.32
2023-04-02T02:16:49.407Z,15.85
2023-04-02T02:19:41.146Z,8.02
2023-04-02T02:22:14.302Z,7.50
2023-04-02T02:24:41.270Z,13.38
2023-04-02T02:27:22.796Z,10.20
2023-04-02T02:29:56.036Z,9.57
2023-04-02T02:32:26.742Z,10.65
2023-04-02T02:35:12.807Z,8.57
2023-04-02T02:37:43.478Z,12.95
2023-04-02T02:40:20.625Z,9.90
2023-04-02T02:42:56.125Z,10.13
2023-04-02T02:45:26.273Z,8.65
2023-04-02T02:47:53.730Z,9.57
2023-04-02T02:50:23.339Z,11.40
2023-04-02T02:52:53.790Z,7.35
2023-04-02T02:55:36.937Z,6.85
2023-04-02T02:58:16.270Z,9.35
2023-04-02T03:00:59.092Z,8.95
2023-04-02T03:03:30.421Z,6.63
2023-04-02T03:06:05.933Z,5.97
2023-04-02T03:08:37.265Z,7.45
2023-04-02T03:11:10.535Z,8.15
2023-04-02T03:13:38.819Z,6.45
2023-04-02T03:16:41.326Z,6.32
2023-04-02T03:19:16.902Z,6.97
2023-04-02T03:21:57.252Z,7.57
2023-04-02T03:24:29.994Z,12.95
2023-04-02T03:27:03.732Z,5.72
2023-04-02T03:29:33.329Z,8.32
2023-04-02T03:32:20.968Z,6.60
2023-04-02T03:35:16.073Z,3.85
2023-04-02T03:37:47.300Z,5.80
2023-04-02T03:40:29.288Z,8.05
2023-04-02T03:43:03.285Z,6.18
2023-04-02T03:45:35.899Z,9.52
2023-04-02T03:48:09.701Z,13.00
2023-04-02T03:50:55.660Z,6.15
2023-04-02T03:53:24.402Z,8.23
2023-04-02T03:55:51.847Z,5.82
2023-04-02T03:58:34.215Z,6.65
2023-04-02T04:01:03.793Z,10.23
2023-04-02T04:03:36.626Z,5.15
2023-04-02T04:06:21.398Z,6.65
2023-04-02T04:09:06.375Z,5.25
2023-04-02T04:11:35.755Z,4.45
2023-04-02T04:14:13.194Z,7.13
2023-04-02T04:16:46.225Z,5.25
2023-04-02T04:19:21.838Z,7.47
2023-04-02T04:21:48.752Z,6.28
2023-04-02T04:24:25.651Z,8.60
2023-04-02T04:27:04.089Z,8.20
2023-04-02T04:29:40.774Z,7.22
2023-04-02T04:32:32.204Z,7.45
2023-04-02T04:35:37.036Z,6.45
2023-04-02T04:38:39.213Z,5.55
2023-04-02T04:41:17.066Z,5.85
2023-04-02T04:43:50.067Z,9.27
2023-04-02T04:46:20.735Z,9.07
2023-04-02T04:48:55.663Z,5.97
2023-04-02T04:51:35.465Z,5.60
2023-04-02T04:54:02.631Z,6.55
2023-04-02T04:56:34.010Z,7.38
2023-04-02T04:59:18.086Z,4.80
2023-04-02T05:01:51.305Z,8.13
2023-04-02T05:04:26.417Z,6.20
2023-04-02T05:07:11.023Z,2.50
2023-04-02T05:09:45.051Z,5.55
2023-04-02T05:12:22.045Z,3.10
2023-04-02T05:14:56.913Z,4.45
2023-04-02T05:17:29.713Z,8.90
2023-04-02T05:20:20.525Z,4.40
2023-04-02T05:22:54.628Z,3.53
2023-04-02T05:25:23.733Z,6.10
2023-04-02T05:28:02.168Z,3.75
2023-04-02T05:30:28.765Z,7.50
2023-04-02T05:33:00.870Z,5.57
2023-04-02T05:35:32.527Z,9.43
2023-04-02T05:38:01.768Z,5.25
2023-04-02T05:40:38.552Z,4.22
2023-04-02T05:43:10.470Z,6.40
2023-04-02T05:45:43.769Z,4.32
2023-04-02T05:48:19.191Z,3.67
2023-04-02T05:50:49.717Z,3.95
2023-04-02T05:53:33.680Z,4.60
2023-04-02T05:56:20.041Z,3.75
2023-04-02T05:59:08.184Z,2.63
2023-04-02T06:01:35.682Z,2.97
2023-04-02T06:04:21.546Z,1.25
2023-04-02T06:06:54.526Z,1.30
2023-04-02T06:09:24.872Z,2.72
2023-04-02T06:11:58.014Z,8.18
2023-04-02T06:14:24.756Z,19.80
2023-04-02T06:16:51.443Z,17.83
2023-04-02T06:19:22.783Z,5.75
2023-04-02T06:21:51.298Z,6.18
2023-04-02T06:24:23.023Z,2.40
2023-04-02T06:26:56.756Z,5.00
2023-04-02T06:29:31.936Z,9.57
2023-04-02T06:32:01.423Z,7.10
2023-04-02T06:34:30.761Z,3.15
2023-04-02T06:37:15.667Z,6.25
2023-04-02T06:39:43.503Z,7.45
2023-04-02T06:42:17.616Z,5.28
2023-04-02T06:45:14.584Z,6.53
2023-04-02T06:47:48.967Z,3.13
2023-04-02T06:50:47.275Z,1.73
2023-04-02T06:53:21.591Z,2.20
2023-04-02T06:56:24.472Z,3.75
2023-04-02T06:58:51.589Z,2.72
2023-04-02T07:01:26.178Z,7.00
2023-04-02T07:03:53.021Z,8.60
2023-04-02T07:06:34.733Z,3.83
2023-04-02T07:09:02.676Z,3.53
2023-04-02T07:11:29.545Z,1.50
2023-04-02T07:13:59.483Z,4.43
2023-04-02T07:16:27.880Z,5.28
2023-04-02T07:18:55.761Z,2.50
2023-04-02T07:21:25.476Z,4.95
2023-04-02T07:23:52.928Z,3.75
2023-04-02T07:26:25.456Z,2.63
2023-04-02T07:28:52.132Z,2.55
2023-04-02T07:31:21.480Z,5.43
2023-04-02T07:33:48.358Z,3.28
2023-04-02T07:36:17.540Z,3.20
2023-04-02T07:38:44.554Z,4.88
2023-04-02T07:41:11.793Z,5.70
2023-04-02T07:43:39.341Z,5.68
2023-04-02T07:46:06.874Z,3.70
2023-04-02T07:48:33.484Z,4.40
2023-04-02T07:51:03.048Z,7.05
2023-04-02T07:53:31.905Z,6.10
2023-04-02T07:55:59.901Z,4.07
2023-04-02T07:58:26.497Z,2.63
2023-04-02T08:00:53.134Z,6.80
2023-04-02T08:03:19.906Z,4.63
2023-04-02T08:05:56.560Z,4.65
2023-04-02T08:08:24.025Z,3.63
2023-04-02T08:10:51.293Z,3.47
2023-04-02T08:13:18.487Z,3.63
2023-04-02T08:15:45.104Z,1.95
2023-04-02T08:18:11.965Z,3.03
2023-04-02T08:20:38.650Z,4.43
2023-04-02T08:23:07.001Z,4.45
2023-04-02T08:25:33.858Z,4.70
2023-04-02T08:28:01.942Z,5.38
2023-04-02T08:30:28.551Z,5.10
2023-04-02T08:32:55.201Z,2.17
2023-04-02T08:35:23.515Z,1.92
2023-04-02T08:37:50.101Z,1.80
2023-04-02T08:40:33.256Z,5.22
2023-04-02T08:43:09.600Z,5.78
2023-04-02T08:45:36.295Z,4.05
2023-04-02T08:48:05.352Z,3.30
2023-04-02T08:50:36.802Z,2.67
2023-04-02T08:53:06.997Z,3.28
2023-04-02T08:55:50.742Z,3.65
2023-04-02T08:58:26.281Z,3.40
2023-04-02T09:00:54.842Z,3.78
2023-04-02T09:03:43.012Z,3.05
2023-04-02T09:06:13.795Z,2.13
2023-04-02T09:08:43.379Z,3.80
2023-04-02T09:11:41.630Z,0.88
2023-04-02T09:14:56.447Z,5.38
2023-04-02T09:19:59.072Z,4.25
2023-04-02T09:22:27.822Z,4.43
2023-04-02T09:24:59.564Z,2.90
2023-04-02T09:27:31.044Z,20.33
2023-04-02T09:30:14.436Z,5.78
2023-04-02T09:33:07.513Z,3.60
2023-04-02T09:35:36.686Z,3.30
2023-04-02T09:38:24.051Z,4.32
2023-04-02T09:41:01.515Z,5.50
2023-04-02T09:43:33.263Z,4.15
2023-04-02T09:46:25.071Z,3.28
2023-04-02T09:48:54.709Z,2.22
2023-04-02T09:51:24.082Z,6.30
2023-04-02T09:53:51.703Z,3.83
2023-04-02T09:56:19.469Z,5.68
2023-04-02T09:58:46.808Z,4.22
2023-04-02T10:01:29.479Z,7.00
2023-04-02T10:03:56.659Z,3.42
2023-04-02T10:06:23.431Z,2.65
2023-04-02T10:08:50.060Z,3.28
2023-04-02T10:11:20.136Z,6.00
2023-04-02T10:13:59.981Z,5.30
2023-04-02T10:16:48.461Z,2.40
2023-04-02T10:19:38.051Z,3.50
2023-04-02T10:22:15.051Z,2.47
2023-04-02T10:24:41.692Z,1.30
2023-04-02T10:27:17.866Z,6.18
2023-04-02T10:30:02.040Z,4.88
2023-04-02T10:33:05.559Z,4.40
2023-04-02T10:35:47.772Z,1.95
2023-04-02T10:38:29.498Z,2.70
2023-04-02T10:41:17.683Z,5.43
2023-04-02T10:44:09.481Z,2.53
2023-04-02T10:47:04.936Z,2.50
2023-04-02T10:49:56.068Z,2.55
2023-04-02T10:52:31.628Z,2.58
2023-04-02T10:55:02.260Z,4.18
2023-04-02T10:57:40.704Z,3.53
2023-04-02T11:00:11.021Z,3.83
2023-04-02T11:02:53.224Z,4.28
2023-04-02T11:05:44.115Z,5.68
2023-04-02T11:08:21.238Z,4.18
2023-04-02T11:10:54.601Z,4.03
2023-04-02T11:13:43.501Z,2.55
2023-04-02T11:16:15.121Z,2.72
2023-04-02T11:18:42.150Z,9.07
2023-04-02T11:21:55.445Z,3.85
2023-04-02T11:24:31.584Z,5.13
2023-04-02T11:27:10.417Z,6.50
2023-04-02T11:30:08.133Z,5.10
2023-04-02T11:32:40.486Z,0.95
2023-04-02T11:35:46.130Z,4.45
2023-04-02T11:38:22.248Z,2.38
2023-04-02T11:40:49.305Z,2.47
2023-04-02T11:43:34.199Z,2.50
2023-04-02T11:46:16.081Z,3.40
2023-04-02T11:48:42.991Z,2.92
2023-04-02T11:51:32.668Z,1.92
2023-04-02T11:53:59.448Z,2.75
2023-04-02T11:56:46.658Z,1.80
2023-04-02T11:59:35.078Z,2.22
2023-04-02T12:02:20.130Z,1.40
2023-04-02T12:05:04.200Z,3.85
2023-04-02T12:07:36.666Z,1.77
2023-04-02T12:10:17.020Z,1.65
2023-04-02T12:12:43.731Z,2.42
2023-04-02T12:15:49.500Z,1.25
2023-04-02T12:18:24.217Z,2.40
2023-04-02T12:20:56.382Z,2.95
2023-04-02T12:23:27.233Z,3.90
2023-04-02T12:25:59.548Z,3.88
2023-04-02T12:28:33.777Z,2.58
2023-04-02T12:31:11.768Z,2.58
2023-04-02T12:33:39.902Z,2.38
2023-04-02T12:36:14.641Z,5.20
2023-04-02T12:38:55.568Z,3.50
2023-04-02T12:41:24.273Z,4.78
2023-04-02T12:43:59.248Z,3.90
2023-04-02T12:46:26.781Z,3.00
2023-04-02T12:49:05.197Z,4.15
2023-04-02T12:51:31.918Z,4.38
2023-04-02T12:53:58.782Z,3.35
2023-04-02T12:56:27.198Z,2.47
2023-04-02T12:59:00.835Z,2.40
2023-04-02T13:01:29.063Z,3.20
2023-04-02T13:04:09.046Z,2.13
2023-04-02T13:06:36.477Z,3.92
2023-04-02T13:09:06.032Z,3.42
2023-04-02T13:11:40.673Z,2.53
2023-04-02T13:14:16.117Z,1.30
2023-04-02T13:16:42.763Z,1.60
2023-04-02T13:19:22.833Z,2.85
2023-04-02T13:21:49.975Z,3.20
2023-04-02T13:24:24.011Z,3.72
2023-04-02T13:26:53.211Z,3.78
2023-04-02T13:29:25.925Z,2.88
2023-04-02T13:31:54.975Z,2.15
2023-04-02T13:34:21.895Z,1.38
2023-04-02T13:36:48.828Z,1.52
2023-04-02T13:39:15.627Z,4.55
2023-04-02T13:41:44.825Z,3.63
2023-04-02T13:44:32.167Z,1.20
2023-04-02T13:46:59.312Z,2.13
2023-04-02T13:49:27.493Z,3.45
2023-04-02T13:51:58.695Z,1.48
2023-04-02T13:54:45.035Z,2.00
2023-04-02T13:57:11.889Z,3.47
2023-04-02T13:59:38.520Z,2.70
2023-04-02T14:02:09.014Z,1.25
2023-04-02T14:04:39.478Z,1.65
2023-04-02T14:07:25.883Z,3.33
2023-04-02T14:10:20.112Z,1.77
2023-04-02T14:13:08.399Z,2.90
2023-04-02T14:15:59.007Z,2.45
2023-04-02T14:18:37.994Z,2.42
2023-04-02T14:21:07.558Z,3.58
2023-04-02T14:23:58.436Z,3.60
2023-04-02T14:26:39.691Z,2.67
2023-04-02T14:29:15.309Z,3.25
2023-04-02T14:32:11.587Z,1.65
2023-04-02T14:34:41.328Z,1.52
2023-04-02T14:37:34.718Z,4.78
2023-04-02T14:40:10.287Z,1.67
2023-04-02T14:42:55.758Z,2.08
2023-04-02T14:45:49.008Z,1.13
2023-04-02T14:48:38.963Z,4.65
2023-04-02T14:51:13.135Z,8.15
2023-04-02T14:53:54.788Z,3.05
2023-04-02T14:56:23.985Z,1.30
2023-04-02T14:58:57.001Z,1.38
2023-04-02T15:01:28.090Z,1.40
2023-04-02T15:04:02.306Z,1.63
2023-04-02T15:06:42.340Z,2.47
2023-04-02T15:09:27.489Z,1.17
2023-04-02T15:11:57.382Z,3.35
2023-04-02T15:14:28.129Z,1.10
2023-04-02T15:16:54.741Z,1.02
2023-04-02T15:19:21.311Z,5.15
2023-04-02T15:22:14.486Z,2.95
2023-04-02T15:25:00.369Z,1.25
2023-04-02T15:27:33.929Z,5.28
2023-04-02T15:32:34.332Z,3.72
2023-04-02T15:35:23.070Z,1.33
2023-04-02T15:37:55.940Z,1.45
2023-04-02T15:40:25.567Z,1.77
2023-04-02T15:42:57.811Z,1.33
2023-04-02T15:45:54.209Z,1.77
2023-04-02T15:48:57.748Z,3.95
2023-04-02T15:51:30.063Z,1.30
2023-04-02T15:54:21.668Z,1.55
2023-04-02T15:57:09.906Z,1.63
2023-04-02T15:59:55.145Z,1.00
2023-04-02T16:02:36.702Z,2.25
2023-04-02T16:05:22.488Z,3.53
2023-04-02T16:07:59.115Z,2.72
2023-04-02T16:10:41.271Z,1.10
2023-04-02T16:15:54.912Z,4.53
2023-04-02T16:18:28.606Z,0.88
2023-04-02T16:20:57.126Z,1.33
2023-04-02T16:23:35.533Z,1.42
2023-04-02T16:26:13.044Z,3.03
2023-04-02T16:28:48.649Z,1.73
2023-04-02T16:31:29.207Z,2.53
2023-04-02T16:34:19.109Z,1.98
2023-04-02T16:36:57.397Z,2.30
2023-04-02T16:39:30.011Z,5.07
2023-04-02T16:42:16.831Z,4.40
2023-04-02T16:45:21.005Z,2.85
2023-04-02T16:47:56.619Z,18.50
2023-04-02T16:50:29.167Z,4.65
2023-04-02T16:53:27.085Z,3.53
2023-04-02T16:56:02.819Z,5.63
2023-04-02T16:59:06.832Z,4.50
2023-04-02T17:01:43.124Z,2.75
2023-04-02T17:04:28.707Z,3.65
2023-04-02T17:07:22.259Z,4.03
2023-04-02T17:09:53.925Z,2.10
2023-04-02T17:12:32.848Z,2.30
2023-04-02T17:15:27.293Z,2.60
2023-04-02T17:17:58.318Z,1.67
2023-04-02T17:20:26.339Z,1.55
2023-04-02T17:22:53.260Z,1.83
2023-04-02T17:25:30.587Z,2.80
2023-04-02T17:27:57.505Z,2.25
2023-04-02T17:30:38.102Z,2.33
2023-04-02T17:33:12.860Z,2.85
2023-04-02T17:36:07.829Z,2.78
2023-04-02T17:38:51.217Z,3.00
2023-04-02T17:41:38.202Z,2.38
2023-04-02T17:44:35.927Z,2.38
2023-04-02T17:47:13.854Z,1.73
2023-04-02T17:49:52.950Z,1.95
2023-04-02T17:52:42.303Z,2.15
2023-04-02T17:55:18.062Z,4.65
2023-04-02T17:58:01.483Z,6.97
2023-04-02T18:00:49.396Z,5.38
2023-04-02T18:03:29.938Z,7.00
2023-04-02T18:06:07.692Z,4.78
2023-04-02T18:08:55.670Z,3.83
2023-04-02T18:11:41.082Z,1.73
2023-04-02T18:14:22.623Z,2.88
2023-04-02T18:17:16.423Z,3.28
2023-04-02T18:20:21.976Z,3.50
2023-04-02T18:22:51.495Z,2.80
2023-04-02T18:25:24.696Z,3.63
2023-04-02T18:28:04.194Z,4.43
2023-04-02T18:30:41.183Z,2.78
2023-04-02T18:33:23.532Z,2.88
2023-04-02T18:36:05.458Z,1.30
2023-04-02T18:38:41.139Z,2.08
2023-04-02T18:41:29.090Z,2.83
2023-04-02T18:44:14.423Z,3.67
2023-04-02T18:47:09.140Z,2.00
2023-04-02T18:49:39.101Z,2.67
2023-04-02T18:52:16.527Z,3.75
2023-04-02T18:54:49.653Z,3.47
2023-04-02T18:57:21.232Z,3.03
2023-04-02T19:00:27.152Z,2.15
2023-04-02T19:03:00.200Z,4.25
2023-04-02T19:05:36.340Z,2.90
2023-04-02T19:08:13.455Z,4.75
2023-04-02T19:10:44.532Z,2.25
2023-04-02T19:13:15.958Z,4.22
2023-04-02T19:15:54.735Z,3.80
2023-04-02T19:18:25.776Z,5.28
2023-04-02T19:21:00.349Z,3.92
2023-04-02T19:23:43.981Z,8.40
2023-04-02T19:26:16.427Z,5.82
2023-04-02T19:29:05.476Z,3.35
2023-04-02T19:31:49.387Z,5.10
2023-04-02T19:37:03.526Z,3.35
2023-04-02T19:39:40.317Z,4.53
2023-04-02T19:42:21.637Z,4.18
2023-04-02T19:44:50.564Z,3.75
2023-04-02T19:47:17.795Z,2.80
2023-04-02T19:49:44.447Z,3.10
2023-04-02T19:52:11.144Z,5.00
2023-04-02T19:54:38.530Z,1.65
2023-04-02T19:57:05.641Z,2.40
2023-04-02T19:59:32.398Z,2.35
2023-04-02T20:01:59.047Z,3.95
2023-04-02T20:04:25.775Z,3.88
2023-04-02T20:06:52.513Z,2.97
2023-04-02T20:09:19.174Z,2.38
2023-04-02T20:11:45.880Z,4.75
2023-04-02T20:14:12.546Z,2.30
2023-04-02T20:16:39.312Z,3.33
2023-04-02T20:19:06.081Z,4.28
2023-04-02T20:21:38.163Z,2.83
2023-04-02T20:24:08.262Z,2.83
2023-04-02T20:26:36.097Z,3.72
2023-04-02T20:29:02.857Z,4.93
2023-04-02T20:31:29.597Z,3.05
2023-04-02T20:33:57.529Z,4.95
2023-04-02T20:36:24.881Z,2.85
2023-04-02T20:38:52.125Z,4.85
2023-04-02T20:41:19.462Z,3.47
2023-04-02T20:43:46.154Z,3.40
2023-04-02T20:46:12.966Z,2.60
2023-04-02T20:48:40.445Z,2.35
2023-04-02T20:51:08.763Z,2.78
2023-04-02T20:53:37.158Z,2.40
2023-04-02T20:56:06.459Z,2.78
2023-04-02T20:58:34.310Z,5.45
2023-04-02T21:01:08.551Z,5.90
2023-04-02T21:03:35.340Z,3.83
2023-04-02T21:06:01.986Z,3.60
2023-04-02T21:08:28.726Z,5.30
2023-04-02T21:11:01.727Z,3.67
2023-04-02T21:13:30.444Z,2.13
2023-04-02T21:15:57.061Z,5.75
2023-04-02T21:18:23.727Z,3.05
2023-04-02T21:21:00.678Z,4.82
2023-04-02T21:23:27.619Z,7.90
2023-04-02T21:25:57.778Z,6.55
2023-04-02T21:28:24.837Z,9.82
2023-04-02T21:30:51.594Z,10.93
2023-04-02T21:33:18.295Z,8.77
2023-04-02T21:35:44.939Z,5.07
2023-04-02T21:38:11.581Z,5.10
2023-04-02T21:40:41.354Z,3.17
2023-04-02T21:43:08.090Z,4.47
2023-04-02T21:45:34.882Z,4.45
2023-04-02T21:48:01.808Z,4.63
2023-04-02T21:50:28.563Z,3.88
2023-04-02T21:52:55.233Z,2.58
2023-04-02T21:55:24.879Z,3.70
2023-04-02T21:57:51.560Z,2.67
2023-04-02T22:00:21.221Z,3.67
2023-04-02T22:02:51.093Z,5.53
2023-04-02T22:05:17.749Z,2.60
2023-04-02T22:07:44.364Z,1.90
2023-04-02T22:10:11.416Z,2.15
2023-04-02T22:12:38.039Z,2.72
2023-04-02T22:15:04.978Z,3.35
2023-04-02T22:17:31.590Z,4.07
2023-04-02T22:19:58.237Z,5.15
2023-04-02T22:22:25.227Z,3.40
2023-04-02T22:24:51.826Z,2.15
2023-04-02T22:27:18.422Z,1.80
2023-04-02T22:29:45.016Z,5.68
2023-04-02T22:32:11.740Z,4.13
2023-04-02T22:34:45.366Z,2.47
2023-04-02T22:39:38.525Z,1.92
2023-04-02T22:42:05.476Z,2.65
2023-04-02T22:44:32.106Z,3.30
2023-04-02T22:46:58.696Z,3.90
2023-04-02T22:49:25.516Z,2.42
2023-04-02T22:51:54.541Z,2.28
2023-04-02T22:54:21.090Z,3.03
2023-04-02T22:56:47.860Z,1.85
2023-04-02T22:59:14.736Z,3.00
2023-04-02T23:01:41.421Z,2.88
2023-04-02T23:04:08.425Z,6.32
2023-04-02T23:06:35.079Z,2.75
2023-04-02T23:09:01.716Z,3.03
2023-04-02T23:11:28.477Z,4.28
2023-04-02T23:13:57.097Z,3.95
2023-04-02T23:16:26.836Z,3.58
2023-04-02T23:18:53.920Z,2.25
2023-04-02T23:21:20.981Z,4.05
2023-04-02T23:23:48.420Z,4.30
2023-04-02T23:26:21.679Z,1.90
2023-04-02T23:28:48.883Z,2.13
2023-04-02T23:31:21.242Z,1.92
2023-04-02T23:33:48.424Z,2.22
2023-04-02T23:36:24.180Z,1.67
2023-04-02T23:38:56.159Z,2.92
2023-04-02T23:41:24.796Z,2.53
2023-04-02T23:43:51.719Z,2.80
2023-04-02T23:46:18.824Z,1.95
2023-04-02T23:48:46.732Z,1.35
2023-04-02T23:51:13.953Z,2.70
2023-04-02T23:53:40.617Z,2.70
2023-04-02T23:56:07.429Z,1.88
2023-04-02T23:58:34.101Z,3.65
